Time;durP1;ratioP1;P1;durP2;ratioP2;P2;SDS_P1;SDS_P2;PMS_P1;PMS_P2;Temp;Humidity;BMP_temperature;BMP_pressure;BME280_temperature;BME280_humidity;BME280_pressure;Samples;Min_cycle;Max_cycle;Signal;HPM_P1;HPM_P2
2022/06/07 00:02:15;;;;;;;6.45;3.92;;;17.50;99.90;;;;;;4972838;28;20113;-60
2022/06/07 00:04:41;;;;;;;4.43;3.40;;;17.40;99.90;;;;;;4972915;28;20034;-60
2022/06/07 00:07:09;;;;;;;4.55;3.60;;;17.60;99.90;;;;;;4967389;28;20446;-59
2022/06/07 00:09:35;;;;;;;5.90;3.65;;;17.50;99.90;;;;;;4976075;28;20034;-60
2022/06/07 00:12:01;;;;;;;4.55;4.00;;;17.50;99.90;;;;;;4975997;28;20027;-60
2022/06/07 00:14:28;;;;;;;4.30;3.90;;;17.40;99.90;;;;;;4976406;28;20038;-59
2022/06/07 00:16:54;;;;;;;4.97;3.50;;;17.50;99.90;;;;;;4976580;28;20034;-59
2022/06/07 00:19:21;;;;;;;5.53;3.33;;;17.40;99.90;;;;;;4976221;28;20023;-60
2022/06/07 00:21:47;;;;;;;5.43;3.33;;;17.50;99.90;;;;;;4976032;28;20059;-60
2022/06/07 00:24:13;;;;;;;3.75;3.10;;;17.60;99.90;;;;;;4975932;28;20546;-60
2022/06/07 00:26:42;;;;;;;4.72;3.35;;;17.50;99.90;;;;;;4975830;28;20554;-60
2022/06/07 00:29:08;;;;;;;4.22;3.63;;;17.60;99.90;;;;;;4976603;28;20085;-60
2022/06/07 00:31:35;;;;;;;3.90;3.20;;;17.60;99.90;;;;;;4974491;28;20037;-60
2022/06/07 00:34:04;;;;;;;5.43;3.60;;;17.60;99.90;;;;;;4975830;28;20069;-60
2022/06/07 00:36:30;;;;;;;4.15;3.20;;;17.60;99.90;;;;;;4975768;28;20050;-59
2022/06/07 00:38:55;;;;;;;6.22;3.70;;;17.60;99.90;;;;;;4975774;28;20075;-60
2022/06/07 00:41:21;;;;;;;5.15;3.97;;;17.50;99.90;;;;;;4975546;28;20038;-60
2022/06/07 00:44:21;;;;;;;4.40;4.00;;;17.50;99.90;;;;;;4976404;28;20034;-61
2022/06/07 00:47:01;;;;;;;8.05;4.25;;;17.40;99.90;;;;;;4976370;28;20039;-60
2022/06/07 00:49:46;;;;;;;5.40;3.72;;;17.40;99.90;;;;;;4975809;28;20027;-60
2022/06/07 00:52:13;;;;;;;4.97;3.70;;;17.60;99.90;;;;;;4975229;28;20118;-60
2022/06/07 00:54:39;;;;;;;4.28;3.88;;;17.60;99.90;;;;;;4975656;28;20023;-60
2022/06/07 00:57:05;;;;;;;6.97;3.60;;;17.60;99.90;;;;;;4975297;28;20038;-60
2022/06/07 00:59:32;;;;;;;4.78;4.07;;;17.50;99.90;;;;;;4975525;28;20070;-60
2022/06/07 01:01:58;;;;;;;7.10;4.07;;;17.40;99.90;;;;;;4975813;28;20061;-60
2022/06/07 01:04:24;;;;;;;5.45;4.05;;;17.40;99.90;;;;;;4975382;28;20038;-61
2022/06/07 01:12:23;;;;;;;6.07;4.45;;;17.30;99.90;;;;;;4975453;28;20053;-60
2022/06/07 01:14:49;;;;;;;7.18;4.53;;;17.20;99.90;;;;;;4975201;28;20487;-59
2022/06/07 01:17:15;;;;;;;5.95;4.50;;;17.20;99.90;;;;;;4975375;28;20038;-60
2022/06/07 01:19:41;;;;;;;6.50;4.55;;;17.10;99.90;;;;;;4975144;28;20015;-61
2022/06/07 01:22:07;;;;;;;7.22;4.50;;;17.20;99.90;;;;;;4974885;28;20425;-60
2022/06/07 01:24:33;;;;;;;4.63;4.13;;;17.20;99.90;;;;;;4974924;28;20082;-60
2022/06/07 01:26:59;;;;;;;5.35;4.72;;;17.10;99.90;;;;;;4975127;28;20114;-60
2022/06/07 01:29:24;;;;;;;7.40;5.10;;;17.10;99.90;;;;;;4974989;28;20550;-60
2022/06/07 01:31:50;;;;;;;6.30;4.50;;;17.10;99.90;;;;;;4975647;28;20066;-60
2022/06/07 01:34:16;;;;;;;5.63;4.70;;;17.20;99.90;;;;;;4974844;28;20047;-60
2022/06/07 01:36:42;;;;;;;7.30;5.05;;;17.20;99.90;;;;;;4974901;28;20093;-60
2022/06/07 01:42:03;;;;;;;8.25;5.32;;;17.10;99.90;;;;;;4976631;28;20046;-60
2022/06/07 01:44:37;;;;;;;6.15;4.53;;;17.00;99.90;;;;;;4991249;28;20039;-60
2022/06/07 01:47:05;;;;;;;5.88;4.90;;;17.00;99.90;;;;;;4988507;28;20042;-60
2022/06/07 01:49:31;;;;;;;5.35;4.60;;;17.00;99.90;;;;;;4987700;28;20046;-60
2022/06/07 01:51:58;;;;;;;5.47;4.50;;;17.00;99.90;;;;;;4987143;28;20039;-60
2022/06/07 01:54:24;;;;;;;6.93;4.22;;;17.10;99.90;;;;;;4986835;28;20109;-60
2022/06/07 01:56:50;;;;;;;6.78;5.03;;;17.10;99.90;;;;;;4990038;28;20600;-60
2022/06/07 01:59:17;;;;;;;6.43;4.68;;;17.10;99.90;;;;;;4989326;28;20030;-60
2022/06/07 02:01:44;;;;;;;6.18;4.13;;;17.10;99.90;;;;;;4987968;28;20030;-59
2022/06/07 02:04:10;;;;;;;7.68;4.20;;;17.20;99.90;;;;;;4987341;28;20031;-60
2022/06/07 02:06:37;;;;;;;7.60;3.90;;;17.20;99.90;;;;;;4987079;28;20038;-60
2022/06/07 02:09:06;;;;;;;4.78;3.72;;;17.50;99.90;;;;;;4987866;28;20030;-60
2022/06/07 02:11:33;;;;;;;4.25;3.50;;;17.40;99.90;;;;;;4990919;28;20110;-60
2022/06/07 02:13:58;;;;;;;5.68;3.33;;;17.20;99.90;;;;;;4987531;28;20022;-60
2022/06/07 02:16:25;;;;;;;5.97;3.40;;;17.50;99.90;;;;;;4986829;28;20060;-60
2022/06/07 02:18:51;;;;;;;8.38;3.58;;;17.50;99.90;;;;;;4979623;28;20047;-60
2022/06/07 02:21:19;;;;;;;7.25;3.38;;;17.50;99.90;;;;;;4973956;28;20057;-60
2022/06/07 02:23:45;;;;;;;6.72;3.47;;;17.60;99.90;;;;;;4973778;28;20026;-60
2022/06/07 02:26:24;;;;;;;5.90;3.00;;;17.60;99.90;;;;;;4974053;28;20109;-60
2022/06/07 02:28:55;;;;;;;7.72;3.30;;;17.40;99.90;;;;;;4974325;28;20046;-60
2022/06/07 02:31:24;;;;;;;6.47;3.53;;;17.30;99.90;;;;;;4972725;28;20031;-59
2022/06/07 02:33:50;;;;;;;8.65;3.28;;;17.30;99.90;;;;;;4973825;28;20395;-60
2022/06/07 02:36:17;;;;;;;7.20;3.65;;;17.20;99.90;;;;;;4973605;28;20507;-60
2022/06/07 02:38:44;;;;;;;8.85;3.83;;;17.10;99.90;;;;;;4973639;28;20026;-60
2022/06/07 02:41:12;;;;;;;10.95;3.80;;;17.10;99.90;;;;;;4974000;28;20046;-60
2022/06/07 02:43:37;;;;;;;9.73;3.75;;;17.20;99.90;;;;;;4973930;28;20484;-60
2022/06/07 02:46:03;;;;;;;7.60;3.50;;;17.20;99.90;;;;;;4973436;28;20034;-60
2022/06/07 02:48:29;;;;;;;6.45;3.20;;;17.20;99.90;;;;;;4973325;28;20031;-60
2022/06/07 02:50:55;;;;;;;8.00;3.40;;;17.20;99.90;;;;;;4973524;28;20435;-60
2022/06/07 02:53:21;;;;;;;8.27;3.58;;;17.10;99.90;;;;;;4973199;28;20030;-60
2022/06/07 02:55:47;;;;;;;8.90;3.35;;;17.10;99.90;;;;;;4973959;28;20041;-59
2022/06/07 02:58:13;;;;;;;7.13;3.22;;;17.10;99.90;;;;;;4973270;28;20401;-60
2022/06/07 03:00:38;;;;;;;12.07;3.75;;;17.10;99.90;;;;;;4973218;28;20033;-60
2022/06/07 03:03:04;;;;;;;8.73;3.40;;;17.10;99.90;;;;;;4973109;28;20452;-60
2022/06/07 03:05:31;;;;;;;9.35;3.78;;;17.10;99.90;;;;;;4973362;28;20023;-60
2022/06/07 03:07:57;;;;;;;10.63;3.58;;;17.10;99.90;;;;;;4973410;28;20112;-60
2022/06/07 03:10:23;;;;;;;7.15;3.55;;;17.10;99.90;;;;;;4973249;28;20035;-60
2022/06/07 03:12:49;;;;;;;7.63;3.33;;;17.00;99.90;;;;;;4972983;28;20027;-60
2022/06/07 03:15:15;;;;;;;8.68;3.20;;;17.10;99.90;;;;;;4972923;28;20057;-60
2022/06/07 03:17:42;;;;;;;8.57;3.15;;;17.10;99.90;;;;;;4987927;28;20042;-60
2022/06/07 03:20:09;;;;;;;7.72;3.30;;;17.00;99.90;;;;;;4972950;28;20023;-60
2022/06/07 03:22:35;;;;;;;8.77;3.42;;;17.00;99.90;;;;;;4973182;28;20027;-60
2022/06/07 03:25:05;;;;;;;6.88;3.55;;;17.00;99.90;;;;;;4967435;28;20562;-61
2022/06/07 03:27:32;;;;;;;7.80;3.53;;;16.90;99.90;;;;;;4972804;28;20035;-60
2022/06/07 03:29:58;;;;;;;8.82;3.97;;;16.90;99.90;;;;;;4972775;28;20030;-60
2022/06/07 03:32:25;;;;;;;11.02;3.60;;;16.80;99.90;;;;;;4973144;28;20435;-60
2022/06/07 03:34:51;;;;;;;10.13;3.85;;;16.90;99.90;;;;;;4972956;28;20030;-60
2022/06/07 03:37:17;;;;;;;10.27;3.85;;;16.90;99.90;;;;;;4973067;28;20062;-60
2022/06/07 03:39:42;;;;;;;9.65;3.45;;;16.90;99.90;;;;;;4972570;28;20529;-60
2022/06/07 03:42:08;;;;;;;8.05;3.50;;;16.90;99.90;;;;;;4972505;28;20062;-60
2022/06/07 03:44:34;;;;;;;9.82;3.80;;;16.80;99.90;;;;;;4987611;28;20031;-60
2022/06/07 03:46:59;;;;;;;8.80;3.45;;;16.80;99.90;;;;;;4973412;28;20046;-60
2022/06/07 03:49:25;;;;;;;11.27;3.53;;;16.80;99.90;;;;;;4972160;28;20093;-60
2022/06/07 03:51:51;;;;;;;6.18;3.35;;;16.70;99.90;;;;;;4972582;28;20031;-60
2022/06/07 03:54:17;;;;;;;10.77;3.60;;;16.70;99.90;;;;;;4972644;28;20459;-60
2022/06/07 03:56:43;;;;;;;9.30;3.70;;;16.60;99.90;;;;;;4972511;28;20030;-60
2022/06/07 03:59:08;;;;;;;11.15;4.03;;;16.50;99.90;;;;;;4972913;28;20031;-60
2022/06/07 04:01:35;;;;;;;8.55;3.20;;;16.50;99.90;;;;;;4972521;28;20481;-59
2022/06/07 04:04:03;;;;;;;8.88;3.72;;;16.50;99.90;;;;;;4972064;28;20038;-60
2022/06/07 04:06:32;;;;;;;12.30;3.90;;;16.40;99.90;;;;;;4972569;28;20081;-60
2022/06/07 04:08:58;;;;;;;9.60;3.45;;;16.30;99.90;;;;;;4972456;28;20073;-60
2022/06/07 04:11:25;;;;;;;9.93;3.40;;;16.30;99.90;;;;;;4972867;28;20027;-60
2022/06/07 04:13:53;;;;;;;8.50;3.50;;;16.30;99.90;;;;;;4973053;28;20500;-60
2022/06/07 04:16:22;;;;;;;10.30;3.70;;;16.30;99.90;;;;;;4972233;28;20055;-60
2022/06/07 04:18:48;;;;;;;13.38;4.15;;;16.40;99.90;;;;;;4971996;28;20022;-60
2022/06/07 04:21:15;;;;;;;12.88;3.70;;;16.40;99.90;;;;;;4972201;28;20035;-60
2022/06/07 04:23:41;;;;;;;11.15;3.90;;;16.50;99.90;;;;;;4972420;28;20078;-60
2022/06/07 04:26:13;;;;;;;8.20;3.30;;;16.50;99.90;;;;;;4972792;28;20030;-61
2022/06/07 04:28:39;;;;;;;11.40;3.70;;;16.50;99.90;;;;;;4971718;28;20101;-60
2022/06/07 04:31:18;;;;;;;10.93;3.80;;;16.50;99.90;;;;;;4972146;28;20047;-59
2022/06/07 04:33:44;;;;;;;13.32;3.53;;;16.50;99.90;;;;;;4971834;28;20512;-59
2022/06/07 04:36:12;;;;;;;14.00;3.78;;;16.60;99.90;;;;;;4972099;28;20045;-59
2022/06/07 04:38:40;;;;;;;8.95;3.30;;;16.60;99.90;;;;;;4972170;28;20052;-60
2022/06/07 04:41:15;;;;;;;12.45;3.83;;;16.60;99.90;;;;;;4987423;28;20483;-59
2022/06/07 04:43:41;;;;;;;12.23;3.72;;;16.60;99.90;;;;;;4971899;28;20053;-60
2022/06/07 04:46:15;;;;;;;10.35;3.53;;;16.60;99.90;;;;;;4966624;28;20055;-59
2022/06/07 04:48:43;;;;;;;14.43;3.50;;;16.60;99.90;;;;;;4971127;28;20034;-59
2022/06/07 04:51:36;;;;;;;10.13;3.60;;;16.60;99.90;;;;;;4971537;28;20545;-59
2022/06/07 04:54:03;;;;;;;15.45;4.28;;;16.60;99.90;;;;;;4969787;28;20407;-59
2022/06/07 04:56:35;;;;;;;8.82;3.42;;;16.60;99.90;;;;;;4975341;28;20045;-58
2022/06/07 04:59:02;;;;;;;8.85;3.38;;;16.60;99.90;;;;;;4975211;28;20026;-59
2022/06/07 05:01:37;;;;;;;5.97;2.78;;;16.70;99.90;;;;;;4974826;28;20403;-60
2022/06/07 05:04:04;;;;;;;5.05;2.53;;;17.30;99.90;;;;;;4975126;28;20031;-59
2022/06/07 05:06:32;;;;;;;6.72;2.47;;;18.40;99.90;;;;;;4974744;28;20491;-59
2022/06/07 05:09:04;;;;;;;5.38;2.38;;;18.80;99.90;;;;;;4989737;28;20023;-59
2022/06/07 05:11:30;;;;;;;5.30;2.53;;;19.00;99.90;;;;;;4974806;28;20035;-59
2022/06/07 05:13:57;;;;;;;8.00;2.53;;;19.00;99.90;;;;;;4974368;28;20019;-59
2022/06/07 05:16:24;;;;;;;6.45;2.53;;;19.20;99.90;;;;;;4973234;28;20117;-60
2022/06/07 05:18:51;;;;;;;7.80;2.70;;;19.30;99.90;;;;;;4974260;28;20085;-60
2022/06/07 05:21:18;;;;;;;8.55;2.83;;;20.20;99.90;;;;;;4974822;28;20034;-61
2022/06/07 05:23:44;;;;;;;7.47;2.42;;;20.60;99.90;;;;;;4975246;28;20042;-60
2022/06/07 05:26:33;;;;;;;8.93;2.70;;;21.40;99.90;;;;;;4974860;28;20027;-60
2022/06/07 05:28:59;;;;;;;8.27;2.80;;;21.70;99.90;;;;;;4974829;28;20027;-60
2022/06/07 05:31:25;;;;;;;9.55;2.75;;;21.30;99.90;;;;;;4973982;28;20031;-59
2022/06/07 05:33:52;;;;;;;16.02;3.05;;;22.70;99.90;;;;;;4974574;28;20062;-60
2022/06/07 05:36:19;;;;;;;11.48;3.28;;;23.70;99.90;;;;;;4974645;28;20070;-60
2022/06/07 05:38:45;;;;;;;12.13;3.38;;;24.00;99.90;;;;;;4974859;28;20439;-60
2022/06/07 05:41:22;;;;;;;15.80;3.17;;;23.80;99.90;;;;;;4989859;28;20455;-60
2022/06/07 05:43:48;;;;;;;12.52;3.33;;;22.50;99.90;;;;;;4975444;28;20023;-60
2022/06/07 05:46:14;;;;;;;10.32;3.33;;;21.50;99.90;;;;;;4974416;28;20082;-60
2022/06/07 05:48:39;;;;;;;9.75;3.00;;;21.20;99.90;;;;;;4974194;28;20031;-60
2022/06/07 05:51:05;;;;;;;13.88;3.10;;;21.10;99.90;;;;;;4974423;28;20031;-60
2022/06/07 05:53:31;;;;;;;10.07;2.92;;;21.50;99.90;;;;;;4974554;28;20538;-60
2022/06/07 05:55:57;;;;;;;11.43;3.17;;;21.60;99.90;;;;;;4974967;28;20042;-60
2022/06/07 05:58:23;;;;;;;12.90;3.00;;;23.00;99.90;;;;;;4974142;28;20038;-61
2022/06/07 06:00:49;;;;;;;9.65;3.00;;;24.10;99.90;;;;;;4974001;28;20081;-61
2022/06/07 06:03:15;;;;;;;8.77;2.72;;;24.80;99.90;;;;;;4974369;28;20042;-60
2022/06/07 06:05:45;;;;;;;9.98;3.08;;;23.00;99.90;;;;;;4974461;28;20026;-61
2022/06/07 06:11:20;;;;;;;10.73;2.97;;;21.90;99.90;;;;;;4974759;28;20037;-61
2022/06/07 06:13:45;;;;;;;9.65;3.15;;;22.50;99.90;;;;;;4974606;28;20498;-61
2022/06/07 06:16:18;;;;;;;8.95;2.80;;;25.60;99.90;;;;;;4973725;28;20047;-60
2022/06/07 06:18:55;;;;;;;11.68;2.72;;;25.20;99.90;;;;;;4973979;28;20034;-61
2022/06/07 06:21:23;;;;;;;11.45;3.00;;;24.20;99.90;;;;;;4974017;28;20033;-61
2022/06/07 06:23:49;;;;;;;8.70;2.83;;;25.80;99.90;;;;;;4974021;28;20508;-61
2022/06/07 06:26:16;;;;;;;12.20;2.67;;;28.30;99.90;;;;;;4974136;28;20105;-60
2022/06/07 06:28:42;;;;;;;9.18;2.30;;;27.60;99.90;;;;;;4973975;28;20039;-61
2022/06/07 06:31:10;;;;;;;10.88;3.20;;;26.30;99.90;;;;;;4974151;28;20130;-60
2022/06/07 06:33:40;;;;;;;10.07;3.00;;;26.50;99.90;;;;;;4973845;28;20062;-61
2022/06/07 06:36:08;;;;;;;6.63;2.35;;;27.60;99.90;;;;;;4973824;28;20062;-60
2022/06/07 06:38:34;;;;;;;8.15;2.50;;;27.40;99.90;;;;;;4973454;28;20034;-61
2022/06/07 06:41:26;;;;;;;9.98;2.90;;;25.90;99.90;;;;;;4974395;28;20455;-61
2022/06/07 06:43:53;;;;;;;10.30;2.60;;;27.20;99.90;;;;;;4974009;28;20062;-60
2022/06/07 06:46:23;;;;;;;8.88;2.50;;;26.40;99.90;;;;;;4988882;28;20034;-60
2022/06/07 06:48:49;;;;;;;10.15;2.88;;;25.30;99.90;;;;;;4973625;28;20443;-61
2022/06/07 06:51:19;;;;;;;6.93;2.53;;;28.50;99.90;;;;;;4973575;28;20027;-60
2022/06/07 06:53:45;;;;;;;9.20;2.42;;;30.50;98.90;;;;;;4973624;28;20038;-60
2022/06/07 06:56:12;;;;;;;6.53;2.50;;;31.70;96.50;;;;;;4973423;28;20096;-61
2022/06/07 06:58:39;;;;;;;7.10;2.58;;;32.70;94.40;;;;;;4972515;28;20050;-61
2022/06/07 07:01:09;;;;;;;7.72;2.35;;;33.20;93.30;;;;;;4973416;28;20034;-60
2022/06/07 07:03:36;;;;;;;7.45;2.40;;;32.50;93.60;;;;;;4973019;28;20523;-61
2022/06/07 07:06:04;;;;;;;8.57;2.47;;;32.50;93.40;;;;;;4973664;28;20066;-61
2022/06/07 07:08:30;;;;;;;7.85;2.60;;;33.70;91.90;;;;;;4973225;28;20050;-61
2022/06/07 07:11:07;;;;;;;10.07;2.60;;;32.60;92.40;;;;;;4973693;28;20061;-60
2022/06/07 07:13:33;;;;;;;10.50;3.28;;;33.00;91.90;;;;;;4972830;28;20043;-61
2022/06/07 07:15:59;;;;;;;7.03;2.47;;;34.10;90.70;;;;;;4972977;28;20043;-61
2022/06/07 07:18:25;;;;;;;8.70;2.30;;;34.10;90.10;;;;;;4972687;28;20038;-61
2022/06/07 07:20:52;;;;;;;9.30;2.70;;;33.10;90.20;;;;;;4973054;28;20415;-61
2022/06/07 07:23:17;;;;;;;13.57;2.80;;;31.10;92.20;;;;;;4973052;28;20491;-61
2022/06/07 07:25:43;;;;;;;8.75;2.53;;;29.40;92.90;;;;;;4973220;28;20062;-61
2022/06/07 07:28:09;;;;;;;8.35;2.63;;;28.40;93.70;;;;;;4972751;28;20105;-61
2022/06/07 07:30:34;;;;;;;8.27;2.33;;;30.80;93.00;;;;;;4972830;28;20038;-61
2022/06/07 07:33:00;;;;;;;12.52;2.67;;;34.80;88.60;;;;;;4972965;28;20105;-61
2022/06/07 07:35:26;;;;;;;10.23;2.72;;;33.50;87.30;;;;;;4987605;28;20128;-61
2022/06/07 07:37:52;;;;;;;7.78;2.35;;;33.70;90.00;;;;;;4973612;28;20041;-60
2022/06/07 07:40:18;;;;;;;6.63;2.17;;;35.00;84.30;;;;;;4972868;28;20372;-61
2022/06/07 07:42:44;;;;;;;8.60;2.42;;;35.80;82.90;;;;;;4972233;28;20113;-61
2022/06/07 07:45:12;;;;;;;6.72;2.22;;;36.10;82.20;;;;;;4972752;28;20023;-61
2022/06/07 07:47:38;;;;;;;6.18;2.03;;;37.60;77.30;;;;;;4972640;28;20391;-60
2022/06/07 07:50:04;;;;;;;7.50;2.47;;;34.90;82.50;;;;;;4973247;28;20030;-61
2022/06/07 07:52:30;;;;;;;7.35;2.45;;;35.30;80.40;;;;;;4972677;28;20026;-61
2022/06/07 07:54:56;;;;;;;8.75;2.40;;;35.70;80.40;;;;;;4972316;28;20408;-62
2022/06/07 07:57:21;;;;;;;5.90;2.10;;;36.10;78.50;;;;;;4972185;28;20042;-61
2022/06/07 07:59:47;;;;;;;8.60;2.28;;;34.40;80.30;;;;;;4972819;28;20019;-61
2022/06/07 08:02:21;;;;;;;7.93;2.60;;;35.40;78.70;;;;;;4972589;28;20076;-61
2022/06/07 08:04:47;;;;;;;6.95;2.45;;;36.20;76.80;;;;;;4971031;28;20058;-61
2022/06/07 08:07:13;;;;;;;7.90;2.50;;;34.70;79.20;;;;;;4972713;28;20054;-61
2022/06/07 08:09:39;;;;;;;6.82;2.30;;;35.40;76.80;;;;;;4972381;28;20415;-61
2022/06/07 08:12:06;;;;;;;6.40;2.40;;;36.40;76.20;;;;;;4971986;28;20027;-61
2022/06/07 08:14:33;;;;;;;8.27;2.83;;;35.70;76.20;;;;;;4972728;28;20027;-63
2022/06/07 08:16:59;;;;;;;6.18;2.28;;;36.60;73.50;;;;;;4973017;28;20038;-61
2022/06/07 08:19:26;;;;;;;10.43;2.50;;;35.90;74.90;;;;;;4972387;28;20440;-61
2022/06/07 08:21:51;;;;;;;7.63;2.35;;;33.70;77.80;;;;;;4972130;28;20500;-62
2022/06/07 08:24:17;;;;;;;4.95;2.10;;;33.40;80.00;;;;;;4972237;28;20023;-61
2022/06/07 08:26:46;;;;;;;5.00;2.10;;;34.70;78.50;;;;;;4972400;28;20031;-61
2022/06/07 08:29:12;;;;;;;6.25;2.35;;;34.40;78.50;;;;;;4972954;28;20038;-62
2022/06/07 08:31:38;;;;;;;6.90;2.20;;;34.60;77.30;;;;;;4976297;28;20019;-61
2022/06/07 08:39:35;;;;;;;6.90;2.35;;;31.00;82.70;;;;;;4975787;28;20026;-60
2022/06/07 08:42:31;;;;;;;5.70;2.40;;;31.30;83.60;;;;;;4976235;28;20089;-61
2022/06/07 08:45:23;;;;;;;7.20;2.35;;;30.40;85.80;;;;;;4975745;28;20023;-61
2022/06/07 08:47:55;;;;;;;6.53;2.28;;;29.90;85.50;;;;;;4975802;28;20030;-61
2022/06/07 08:50:38;;;;;;;12.35;2.85;;;31.40;84.00;;;;;;4976030;28;20038;-61
2022/06/07 08:53:17;;;;;;;4.45;2.10;;;32.70;80.20;;;;;;4972202;28;20033;-61
2022/06/07 08:55:52;;;;;;;7.25;1.98;;;34.70;79.00;;;;;;4975516;28;20102;-61
2022/06/07 08:58:33;;;;;;;4.80;2.03;;;34.30;76.30;;;;;;4975825;28;20609;-61
2022/06/07 09:01:10;;;;;;;6.00;2.20;;;35.00;76.20;;;;;;4975649;28;20031;-62
2022/06/07 09:03:57;;;;;;;5.70;1.98;;;30.40;85.00;;;;;;4975171;28;20133;-61
2022/06/07 09:06:29;;;;;;;6.78;2.30;;;32.20;83.20;;;;;;4975016;28;20398;-61
2022/06/07 09:08:58;;;;;;;5.93;2.35;;;34.40;78.20;;;;;;4975415;28;20130;-62
2022/06/07 09:14:32;;;;;;;5.97;2.10;;;33.80;79.40;;;;;;4974374;28;20541;-61
2022/06/07 09:17:01;;;;;;;4.93;2.00;;;33.60;78.60;;;;;;4975794;28;20096;-61
2022/06/07 09:19:29;;;;;;;6.40;2.08;;;33.30;80.30;;;;;;4975313;28;20042;-62
2022/06/07 09:21:58;;;;;;;6.70;2.25;;;34.90;76.10;;;;;;4974975;28;20101;-61
2022/06/07 09:24:32;;;;;;;5.25;2.20;;;35.30;76.60;;;;;;4974771;28;20117;-61
2022/06/07 09:27:06;;;;;;;6.75;2.20;;;34.10;76.80;;;;;;4975186;28;20042;-62
2022/06/07 09:29:36;;;;;;;8.05;2.40;;;33.90;77.30;;;;;;4974809;28;20027;-61
2022/06/07 09:32:10;;;;;;;5.75;2.22;;;33.50;79.50;;;;;;4975518;28;20403;-62
2022/06/07 09:34:37;;;;;;;8.82;2.20;;;34.00;78.10;;;;;;4974955;28;20554;-61
2022/06/07 09:37:06;;;;;;;7.40;2.58;;;34.30;76.90;;;;;;4974437;28;20066;-62
2022/06/07 09:39:43;;;;;;;6.50;2.17;;;34.50;76.80;;;;;;4974671;28;20022;-61
2022/06/07 09:42:30;;;;;;;5.80;2.42;;;33.10;79.10;;;;;;4974529;28;21097;-61
2022/06/07 09:45:14;;;;;;;4.70;1.98;;;32.80;80.60;;;;;;4974808;28;20045;-61
2022/06/07 09:47:40;;;;;;;6.68;2.13;;;31.90;80.20;;;;;;4974573;28;20022;-62
2022/06/07 09:50:12;;;;;;;4.55;1.73;;;31.30;83.40;;;;;;4990031;28;20030;-62
2022/06/07 09:52:41;;;;;;;6.88;1.90;;;31.40;80.90;;;;;;4974921;28;20034;-62
2022/06/07 09:55:17;;;;;;;5.45;2.35;;;31.40;80.10;;;;;;4974536;28;20031;-62
2022/06/07 09:57:56;;;;;;;8.43;2.38;;;31.80;79.70;;;;;;4974421;28;20034;-61
2022/06/07 10:00:41;;;;;;;6.25;2.28;;;30.00;83.90;;;;;;4974303;28;20058;-62
2022/06/07 10:03:13;;;;;;;5.15;1.85;;;30.10;83.70;;;;;;4974355;28;20550;-62
2022/06/07 10:06:08;;;;;;;7.15;2.30;;;29.80;84.80;;;;;;4974326;28;20023;-62
2022/06/07 10:09:02;;;;;;;6.00;2.10;;;29.40;86.10;;;;;;4958116;28;20042;-62
2022/06/07 10:11:34;;;;;;;;;;;29.40;86.40;;;;;;4973655;28;20039;-62
2022/06/07 10:14:09;;;;;;;4.90;1.85;;;29.10;83.90;;;;;;4974909;28;19965;-61
2022/06/07 10:16:42;;;;;;;5.40;1.80;;;29.20;87.10;;;;;;4974661;28;20062;-61
2022/06/07 10:19:11;;;;;;;;;;;29.50;85.90;;;;;;4974449;28;20041;-61
2022/06/07 10:22:02;;;;;;;5.35;2.00;;;28.90;86.00;;;;;;4973686;28;19963;-61
2022/06/07 10:24:28;;;;;;;5.55;2.00;;;28.30;84.60;;;;;;4973943;28;20041;-61
2022/06/07 10:27:35;;;;;;;5.57;2.20;;;28.30;86.80;;;;;;4973949;28;20031;-62
2022/06/07 10:30:18;;;;;;;6.45;2.10;;;29.70;82.80;;;;;;4973805;28;20062;-62
2022/06/07 10:33:10;;;;;;;4.90;2.13;;;29.80;84.80;;;;;;4973788;28;20043;-61
2022/06/07 10:35:43;;;;;;;5.80;1.83;;;29.40;85.40;;;;;;4973433;28;20042;-61
2022/06/07 10:38:22;;;;;;;;;;;28.90;87.10;;;;;;4971000;28;20361;-62
2022/06/07 10:41:03;;;;;;;6.30;2.20;;;28.80;87.10;;;;;;4967952;28;19929;-61
2022/06/07 10:43:46;;;;;;;2.83;1.65;;;29.20;84.70;;;;;;4973462;28;20487;-61
2022/06/07 10:46:15;;;;;;;5.03;2.25;;;28.90;86.50;;;;;;4988629;28;20403;-62
2022/06/07 10:49:03;;;;;;;5.63;1.90;;;29.40;83.90;;;;;;4973211;28;20035;-61
2022/06/07 10:54:31;;;;;;;5.20;2.10;;;28.80;87.50;;;;;;4973995;28;20037;-61
2022/06/07 10:57:06;;;;;;;7.30;2.13;;;29.30;87.00;;;;;;4973785;28;20092;-62
2022/06/07 10:59:33;;;;;;;7.30;2.10;;;29.50;84.50;;;;;;4973290;28;20077;-61
2022/06/07 11:02:24;;;;;;;4.82;1.88;;;28.70;86.10;;;;;;4973641;28;20181;-62
2022/06/07 11:10:41;;;;;;;;;;;29.10;84.90;;;;;;4973536;28;20538;-62
2022/06/07 11:13:35;;;;;;;6.60;1.90;;;29.30;86.10;;;;;;4973149;28;19942;-62
2022/06/07 11:16:16;;;;;;;4.35;1.92;;;28.90;86.40;;;;;;4972794;28;20042;-62
2022/06/07 11:18:42;;;;;;;4.45;1.55;;;28.60;87.10;;;;;;4972666;28;20029;-62
2022/06/07 11:21:22;;;;;;;3.92;1.60;;;29.20;86.00;;;;;;4973103;28;20423;-62
2022/06/07 11:24:14;;;;;;;4.85;1.55;;;28.70;87.10;;;;;;4988044;28;20493;-61
2022/06/07 11:26:52;;;;;;;7.22;2.13;;;28.50;87.80;;;;;;4957372;28;20069;-62
2022/06/07 11:29:22;;;;;;;5.00;1.77;;;27.80;89.40;;;;;;4973067;28;20033;-61
2022/06/07 11:31:49;;;;;;;5.65;2.08;;;27.70;90.00;;;;;;4971389;28;20089;-61
2022/06/07 11:34:25;;;;;;;4.20;1.60;;;28.00;88.30;;;;;;4972745;28;20432;-61
2022/06/07 11:37:14;;;;;;;5.80;2.00;;;28.40;86.10;;;;;;4972438;28;20035;-62
2022/06/07 11:39:40;;;;;;;5.32;1.85;;;28.50;87.60;;;;;;4969386;28;20108;-62
2022/06/07 11:42:15;;;;;;;5.22;1.80;;;29.00;86.90;;;;;;4973065;28;20055;-61
2022/06/07 11:44:41;;;;;;;6.05;1.63;;;28.00;89.60;;;;;;4972648;28;20037;-62
2022/06/07 11:47:07;;;;;;;5.57;1.60;;;28.10;90.00;;;;;;4973477;28;20019;-61
2022/06/07 11:49:54;;;;;;;6.60;2.05;;;27.90;88.90;;;;;;4972148;28;20045;-61
2022/06/07 11:52:22;;;;;;;4.25;1.50;;;27.60;87.90;;;;;;4973021;28;20042;-61
2022/06/07 11:54:56;;;;;;;4.45;1.90;;;27.60;90.00;;;;;;4972483;28;20019;-62
2022/06/07 11:57:37;;;;;;;5.38;1.73;;;27.50;89.80;;;;;;4972546;28;20074;-61
2022/06/07 12:00:17;;;;;;;4.88;1.83;;;27.30;90.10;;;;;;4972425;28;20479;-62
2022/06/07 12:03:08;;;;;;;5.55;1.73;;;27.10;90.90;;;;;;4972199;28;20066;-62
2022/06/07 12:05:52;;;;;;;6.43;2.35;;;27.20;90.60;;;;;;4960156;28;20034;-61
2022/06/07 12:08:42;;;;;;;;;;;27.50;89.90;;;;;;4974630;28;20491;-62
2022/06/07 12:11:20;;;;;;;4.85;1.70;;;27.60;90.10;;;;;;4973568;28;19906;-61
2022/06/07 12:14:11;;;;;;;4.90;1.83;;;27.30;88.10;;;;;;4976913;28;20027;-61
2022/06/07 12:16:36;;;;;;;4.28;1.90;;;27.60;88.90;;;;;;4976510;28;20093;-61
2022/06/07 12:19:25;;;;;;;4.22;1.50;;;27.50;90.60;;;;;;4976249;28;20018;-61
2022/06/07 12:22:05;;;;;;;4.55;1.65;;;28.10;90.10;;;;;;4975965;28;20039;-62
2022/06/07 12:24:38;;;;;;;6.32;1.50;;;27.70;90.10;;;;;;4976075;28;20045;-63
2022/06/07 12:27:35;;;;;;;8.35;2.30;;;28.10;88.00;;;;;;4976345;28;20074;-61
2022/06/07 12:30:21;;;;;;;4.93;1.70;;;28.10;87.00;;;;;;4954404;29;20805;-63
2022/06/07 12:32:49;;;;;;;5.45;1.90;;;27.80;90.10;;;;;;4954366;29;20122;-61
2022/06/07 12:35:23;;;;;;;6.47;2.03;;;27.90;87.60;;;;;;4954648;29;20042;-61
2022/06/07 12:38:00;;;;;;;7.55;2.10;;;28.20;85.30;;;;;;4954923;29;20035;-61
2022/06/07 12:40:31;;;;;;;6.13;1.77;;;28.00;86.30;;;;;;4954362;29;20115;-61
2022/06/07 12:42:58;;;;;;;4.90;1.85;;;27.50;87.70;;;;;;4954511;29;20524;-62
2022/06/07 12:45:37;;;;;;;5.20;1.73;;;28.10;88.90;;;;;;4954282;29;20035;-62
2022/06/07 12:48:14;;;;;;;5.20;1.92;;;27.50;90.20;;;;;;4954130;29;20118;-62
2022/06/07 12:50:42;;;;;;;6.82;2.03;;;27.10;90.20;;;;;;4954199;29;20030;-61
2022/06/07 12:53:22;;;;;;;6.07;1.70;;;27.70;89.40;;;;;;4954717;29;20538;-61
2022/06/07 12:56:02;;;;;;;5.47;1.80;;;27.60;89.50;;;;;;4954540;29;20059;-62
2022/06/07 12:58:43;;;;;;;5.78;1.73;;;27.80;90.10;;;;;;4949708;29;20063;-61
2022/06/07 13:01:25;;;;;;;4.75;1.70;;;27.30;90.10;;;;;;4953591;29;20527;-61
2022/06/07 13:03:54;;;;;;;5.97;1.88;;;27.30;90.20;;;;;;4953806;29;20040;-62
2022/06/07 13:06:21;;;;;;;6.32;1.80;;;27.30;90.70;;;;;;4961225;28;20512;-61
2022/06/07 13:09:03;;;;;;;9.18;2.15;;;27.10;90.70;;;;;;4975892;28;20018;-61
2022/06/07 13:11:34;;;;;;;4.88;1.80;;;27.20;90.10;;;;;;4975375;28;20046;-61
2022/06/07 13:14:00;;;;;;;4.78;1.80;;;27.20;90.20;;;;;;4975932;28;20034;-61
2022/06/07 13:16:32;;;;;;;5.13;1.88;;;27.40;90.30;;;;;;4973884;28;20573;-61
2022/06/07 13:18:59;;;;;;;5.30;1.98;;;27.00;90.50;;;;;;4975185;28;20485;-61
2022/06/07 13:21:37;;;;;;;4.85;1.83;;;27.10;91.10;;;;;;4975112;28;20034;-61
2022/06/07 13:24:04;;;;;;;4.75;1.80;;;27.30;90.50;;;;;;4975109;28;20400;-61
2022/06/07 13:26:43;;;;;;;6.97;2.20;;;27.30;90.20;;;;;;4990299;28;20031;-62
2022/06/07 13:29:25;;;;;;;6.28;2.13;;;26.90;91.20;;;;;;4971634;28;20023;-61
2022/06/07 13:31:53;;;;;;;3.95;1.75;;;26.80;90.80;;;;;;4973745;28;20043;-61
2022/06/07 13:34:21;;;;;;;4.50;1.45;;;26.30;91.90;;;;;;4974898;28;20027;-61